createdAt,value
2018-03-18T00:00:15.338Z,13.68
2018-03-18T00:03:19.677Z,14.77
2018-03-18T00:06:22.977Z,15.10
2018-03-18T00:09:26.564Z,15.47
2018-03-18T00:12:30.729Z,13.33
2018-03-18T00:15:34.013Z,16.20
2018-03-18T00:18:37.289Z,12.90
2018-03-18T00:21:40.587Z,14.67
2018-03-18T00:24:44.622Z,16.30
2018-03-18T00:27:49.214Z,14.77
2018-03-18T00:30:54.571Z,15.37
2018-03-18T00:33:58.907Z,14.00
2018-03-18T00:37:02.187Z,13.27
2018-03-18T00:40:06.319Z,15.57
2018-03-18T00:43:09.651Z,15.20
2018-03-18T00:46:12.973Z,14.00
2018-03-18T00:49:16.250Z,14.43
2018-03-18T00:52:19.537Z,14.43
2018-03-18T00:55:23.732Z,14.82
2018-03-18T00:58:27.005Z,12.80
2018-03-18T01:01:30.415Z,14.20
2018-03-18T01:04:34.737Z,13.03
2018-03-18T01:07:38.860Z,14.40
2018-03-18T01:10:42.164Z,15.07
2018-03-18T01:13:46.808Z,14.02
2018-03-18T01:16:50.143Z,13.00
2018-03-18T01:19:53.501Z,12.83
2018-03-18T01:22:56.794Z,13.17
2018-03-18T01:26:00.081Z,13.13
2018-03-18T01:29:03.361Z,13.57
2018-03-18T01:32:07.795Z,13.47
2018-03-18T01:35:11.832Z,13.90
2018-03-18T01:38:15.117Z,15.00
2018-03-18T01:41:18.393Z,12.23
2018-03-18T01:44:22.426Z,14.03
2018-03-18T01:47:25.895Z,12.90
2018-03-18T01:50:29.186Z,13.77
2018-03-18T01:53:32.638Z,12.40
2018-03-18T01:56:35.916Z,12.60
2018-03-18T01:59:39.962Z,13.57
2018-03-18T02:02:43.251Z,11.43
2018-03-18T02:05:46.526Z,10.37
2018-03-18T02:08:49.841Z,10.20
2018-03-18T02:11:53.117Z,10.77
2018-03-18T02:14:57.145Z,10.97
2018-03-18T02:18:00.538Z,10.47
2018-03-18T02:21:03.943Z,10.53
2018-03-18T02:24:07.211Z,10.70
2018-03-18T02:27:10.621Z,9.23
2018-03-18T02:30:14.753Z,12.85
2018-03-18T02:33:18.033Z,11.97
2018-03-18T02:36:22.074Z,12.97
2018-03-18T02:39:25.542Z,11.63
2018-03-18T02:42:30.412Z,11.37
2018-03-18T02:45:33.701Z,12.00
2018-03-18T02:48:36.982Z,11.67
2018-03-18T02:51:41.022Z,9.67
2018-03-18T02:54:44.298Z,11.73
2018-03-18T02:57:50.562Z,10.73
2018-03-18T03:00:54.601Z,10.20
2018-03-18T03:03:57.903Z,11.23
2018-03-18T03:07:01.182Z,10.07
2018-03-18T03:10:04.786Z,11.47
2018-03-18T03:13:08.099Z,12.50
2018-03-18T03:16:11.698Z,10.57
2018-03-18T03:19:14.970Z,9.87
2018-03-18T03:22:19.016Z,12.40
2018-03-18T03:25:22.306Z,12.53
2018-03-18T03:28:25.581Z,12.10
2018-03-18T03:31:29.887Z,11.97
2018-03-18T03:34:33.164Z,12.37
2018-03-18T03:37:37.380Z,12.70
2018-03-18T03:40:40.673Z,11.77
2018-03-18T03:43:43.971Z,12.13
2018-03-18T03:46:47.248Z,12.97
2018-03-18T03:49:50.517Z,12.60
2018-03-18T03:52:54.707Z,13.10
2018-03-18T03:55:58.314Z,12.07
2018-03-18T03:59:01.846Z,12.67
2018-03-18T04:02:05.890Z,9.67
2018-03-18T04:05:09.178Z,13.38
2018-03-18T04:08:12.472Z,12.23
2018-03-18T04:11:15.737Z,12.43
2018-03-18T04:14:20.209Z,12.15
2018-03-18T04:17:23.600Z,12.00
2018-03-18T04:20:26.889Z,12.70
2018-03-18T04:23:30.167Z,12.17
2018-03-18T04:26:34.239Z,11.47
2018-03-18T04:29:37.518Z,10.20
2018-03-18T04:32:40.807Z,12.47
2018-03-18T04:35:44.074Z,14.38
2018-03-18T04:38:47.395Z,14.77
2018-03-18T04:41:50.690Z,12.80
2018-03-18T04:44:53.983Z,11.63
2018-03-18T04:47:57.254Z,14.57
2018-03-18T04:51:00.584Z,11.87
2018-03-18T04:54:03.875Z,12.70
2018-03-18T04:57:08.022Z,14.17
2018-03-18T05:00:11.402Z,13.27
2018-03-18T05:03:14.937Z,14.30
2018-03-18T05:06:18.209Z,11.57
2018-03-18T05:09:21.486Z,11.57
2018-03-18T05:12:24.761Z,10.63
2018-03-18T05:15:28.033Z,12.10
2018-03-18T05:18:32.136Z,12.60
2018-03-18T05:21:35.466Z,12.07
2018-03-18T05:24:38.719Z,11.80
2018-03-18T05:27:42.010Z,10.53
2018-03-18T05:30:45.362Z,13.90
2018-03-18T05:33:48.654Z,11.10
2018-03-18T05:36:51.946Z,13.33
2018-03-18T05:39:55.253Z,10.73
2018-03-18T05:42:58.641Z,11.97
2018-03-18T05:46:02.081Z,12.40
2018-03-18T05:49:06.131Z,10.57
2018-03-18T05:52:09.464Z,11.53
2018-03-18T05:55:13.004Z,12.57
2018-03-18T05:58:31.308Z,10.47
2018-03-18T06:01:35.621Z,11.97
2018-03-18T06:04:38.969Z,10.27
2018-03-18T06:07:42.412Z,10.50
2018-03-18T06:10:45.814Z,10.27
2018-03-18T06:13:49.108Z,11.83
2018-03-18T06:16:52.967Z,11.50
2018-03-18T06:19:56.239Z,12.10
2018-03-18T06:22:59.550Z,10.67
2018-03-18T06:26:02.953Z,11.13
2018-03-18T06:29:06.333Z,10.17
2018-03-18T06:32:09.619Z,9.63
2018-03-18T06:35:13.715Z,10.83
2018-03-18T06:38:17.108Z,9.97
2018-03-18T06:41:21.178Z,10.60
2018-03-18T06:44:24.672Z,9.77
2018-03-18T06:47:28.132Z,9.47
2018-03-18T06:50:31.544Z,8.97
2018-03-18T06:53:35.578Z,9.77
2018-03-18T06:56:39.069Z,8.43
2018-03-18T06:59:43.122Z,9.30
2018-03-18T07:02:46.500Z,8.97
2018-03-18T07:05:49.796Z,9.90
2018-03-18T07:08:53.196Z,8.90
2018-03-18T07:11:56.470Z,8.70
2018-03-18T07:14:59.829Z,9.40
2018-03-18T07:18:03.097Z,9.07
2018-03-18T07:21:06.378Z,8.90
2018-03-18T07:24:09.664Z,9.70
2018-03-18T07:27:13.694Z,8.80
2018-03-18T07:30:17.093Z,8.97
2018-03-18T07:33:20.368Z,8.90
2018-03-18T07:36:24.513Z,8.43
2018-03-18T07:39:27.910Z,7.73
2018-03-18T07:42:31.215Z,7.50
2018-03-18T07:45:34.536Z,7.63
2018-03-18T07:48:37.916Z,9.47
2018-03-18T07:51:41.185Z,8.57
2018-03-18T07:54:45.220Z,8.13
2018-03-18T07:57:48.490Z,9.07
2018-03-18T08:00:52.538Z,8.83
2018-03-18T08:03:55.827Z,8.60
2018-03-18T08:06:59.121Z,8.73
2018-03-18T08:10:03.195Z,9.00
2018-03-18T08:13:06.647Z,8.57
2018-03-18T08:16:09.925Z,7.43
2018-03-18T08:19:14.016Z,7.53
2018-03-18T08:22:17.368Z,10.70
2018-03-18T08:25:20.648Z,9.67
2018-03-18T08:28:23.917Z,7.87
2018-03-18T08:31:27.513Z,8.63
2018-03-18T08:34:31.560Z,8.87
2018-03-18T08:37:35.587Z,8.47
2018-03-18T08:40:38.865Z,9.30
2018-03-18T08:43:42.911Z,8.63
2018-03-18T08:46:46.542Z,8.27
2018-03-18T08:49:49.956Z,8.33
2018-03-18T08:52:53.234Z,9.37
2018-03-18T08:55:56.945Z,9.13
2018-03-18T08:59:00.284Z,8.43
2018-03-18T09:02:04.461Z,8.87
2018-03-18T09:05:07.730Z,8.70
2018-03-18T09:08:11.464Z,10.03
2018-03-18T09:11:15.544Z,8.53
2018-03-18T09:14:18.869Z,9.47
2018-03-18T09:17:22.227Z,8.20
2018-03-18T09:20:25.546Z,9.17
2018-03-18T09:23:28.946Z,7.90
2018-03-18T09:26:32.270Z,9.18
2018-03-18T09:29:35.569Z,7.67
2018-03-18T09:32:38.896Z,8.90
2018-03-18T09:35:42.238Z,8.57
2018-03-18T09:38:46.960Z,9.02
2018-03-18T09:41:50.365Z,7.70
2018-03-18T09:44:53.692Z,9.67
2018-03-18T09:47:56.961Z,8.47
2018-03-18T09:51:00.236Z,8.50
2018-03-18T09:54:04.266Z,9.10
2018-03-18T09:57:08.589Z,7.73
2018-03-18T10:00:22.729Z,7.90
2018-03-18T10:03:26.818Z,7.70
2018-03-18T10:06:30.092Z,9.43
2018-03-18T10:09:33.381Z,8.87
2018-03-18T10:12:36.651Z,8.43
2018-03-18T10:15:39.949Z,8.77
2018-03-18T10:18:43.241Z,8.20
2018-03-18T10:21:47.295Z,8.27
2018-03-18T10:25:16.729Z,9.00
2018-03-18T10:28:20.029Z,8.70
2018-03-18T10:31:23.306Z,7.77
2018-03-18T10:34:26.843Z,9.13
2018-03-18T10:37:30.137Z,8.53
2018-03-18T10:40:33.454Z,8.33
2018-03-18T10:43:37.490Z,8.60
2018-03-18T10:46:41.164Z,8.70
2018-03-18T10:49:46.036Z,8.47
2018-03-18T10:52:49.306Z,8.43
2018-03-18T10:55:52.574Z,9.37
2018-03-18T10:58:55.856Z,10.93
2018-03-18T11:02:04.534Z,9.00
2018-03-18T11:05:08.834Z,8.77
2018-03-18T11:08:12.316Z,8.97
2018-03-18T11:11:16.507Z,9.30
2018-03-18T11:14:19.793Z,9.67
2018-03-18T11:17:23.092Z,9.63
2018-03-18T11:20:26.393Z,9.45
2018-03-18T11:23:30.006Z,8.77
2018-03-18T11:26:33.387Z,8.93
2018-03-18T11:29:36.817Z,8.93
2018-03-18T11:32:40.162Z,9.57
2018-03-18T11:35:44.504Z,8.43
2018-03-18T11:38:48.600Z,9.00
2018-03-18T11:41:52.735Z,9.57
2018-03-18T11:44:56.778Z,9.70
2018-03-18T11:48:00.112Z,9.03
2018-03-18T11:51:03.646Z,10.10
2018-03-18T11:54:07.675Z,10.17
2018-03-18T11:57:10.989Z,9.33
2018-03-18T12:00:14.998Z,8.73
2018-03-18T12:03:18.309Z,9.77
2018-03-18T12:06:21.647Z,9.47
2018-03-18T12:09:26.829Z,9.50
2018-03-18T12:12:30.706Z,9.03
2018-03-18T12:15:34.099Z,8.60
2018-03-18T12:18:37.448Z,9.60
2018-03-18T12:21:41.586Z,9.70
2018-03-18T12:24:44.849Z,9.47
2018-03-18T12:27:48.632Z,9.37
2018-03-18T12:30:51.911Z,8.77
2018-03-18T12:33:55.221Z,9.60
2018-03-18T12:36:58.511Z,10.10
2018-03-18T12:40:21.241Z,10.13
2018-03-18T12:43:30.825Z,9.60
2018-03-18T12:46:35.684Z,9.53
2018-03-18T12:49:39.245Z,7.77
2018-03-18T12:52:42.513Z,8.77
2018-03-18T12:55:45.822Z,8.37
2018-03-18T12:58:49.172Z,9.63
2018-03-18T13:01:52.454Z,8.50
2018-03-18T13:04:56.005Z,9.40
2018-03-18T13:07:59.491Z,11.00
2018-03-18T13:11:02.832Z,9.97
2018-03-18T13:14:06.210Z,8.63
2018-03-18T13:17:09.509Z,9.70
2018-03-18T13:20:12.802Z,9.80
2018-03-18T13:23:16.130Z,10.70
2018-03-18T13:26:19.736Z,8.07
2018-03-18T13:29:23.072Z,9.43
2018-03-18T13:32:26.405Z,9.43
2018-03-18T13:35:29.699Z,8.97
2018-03-18T13:38:32.973Z,8.43
2018-03-18T13:41:37.317Z,9.57
2018-03-18T13:44:40.903Z,9.80
2018-03-18T13:47:44.199Z,9.27
2018-03-18T13:50:48.590Z,9.60
2018-03-18T13:53:52.150Z,9.27
2018-03-18T13:57:12.805Z,9.30
2018-03-18T14:00:16.202Z,9.57
2018-03-18T14:03:20.292Z,10.53
2018-03-18T14:06:23.826Z,10.33
2018-03-18T14:09:27.662Z,9.57
2018-03-18T14:12:30.983Z,7.77
2018-03-18T14:15:34.363Z,9.77
2018-03-18T14:18:37.761Z,10.73
2018-03-18T14:21:41.810Z,9.53
2018-03-18T14:24:45.181Z,8.63
2018-03-18T14:27:48.460Z,9.03
2018-03-18T14:30:52.526Z,8.70
2018-03-18T14:33:55.818Z,10.07
2018-03-18T14:36:59.152Z,9.57
2018-03-18T14:40:02.582Z,9.87
2018-03-18T14:43:05.923Z,8.90
2018-03-18T14:46:09.201Z,9.50
2018-03-18T14:49:12.475Z,9.53
2018-03-18T14:52:15.802Z,9.73
2018-03-18T14:55:20.108Z,9.18
2018-03-18T14:58:23.405Z,9.97
2018-03-18T15:01:27.430Z,10.77
2018-03-18T15:04:30.689Z,7.63
2018-03-18T15:07:34.757Z,8.83
2018-03-18T15:10:38.120Z,8.83
2018-03-18T15:13:41.610Z,8.87
2018-03-18T15:16:45.775Z,7.43
2018-03-18T15:19:49.054Z,8.43
2018-03-18T15:22:52.333Z,9.43
2018-03-18T15:25:56.363Z,8.37
2018-03-18T15:28:59.814Z,8.30
2018-03-18T15:32:03.895Z,10.40
2018-03-18T15:35:07.221Z,7.63
2018-03-18T15:38:10.684Z,10.27
2018-03-18T15:41:13.987Z,8.97
2018-03-18T15:44:17.270Z,9.43
2018-03-18T15:47:20.552Z,9.13
2018-03-18T15:50:24.701Z,9.17
2018-03-18T15:53:28.009Z,9.93
2018-03-18T15:56:31.285Z,8.10
2018-03-18T15:59:34.691Z,8.10
2018-03-18T16:02:37.995Z,8.03
2018-03-18T16:05:41.381Z,9.47
2018-03-18T16:08:44.682Z,9.40
2018-03-18T16:11:47.972Z,7.37
2018-03-18T16:14:51.368Z,8.30
2018-03-18T16:17:54.671Z,8.53
2018-03-18T16:20:57.975Z,8.67
2018-03-18T16:24:01.321Z,7.97
2018-03-18T16:27:04.662Z,8.67
2018-03-18T16:30:26.659Z,6.73
2018-03-18T16:33:29.957Z,9.27
2018-03-18T16:36:33.225Z,10.33
2018-03-18T16:39:36.597Z,10.33
2018-03-18T16:42:39.923Z,9.03
2018-03-18T16:45:43.205Z,9.93
2018-03-18T16:48:46.495Z,7.37
2018-03-18T16:51:50.591Z,10.07
2018-03-18T16:54:54.693Z,8.27
2018-03-18T16:57:58.821Z,9.63
2018-03-18T17:01:02.969Z,8.90
2018-03-18T17:04:06.273Z,7.70
2018-03-18T17:07:09.561Z,7.10
2018-03-18T17:10:12.849Z,7.47
2018-03-18T17:13:16.117Z,8.37
2018-03-18T17:16:19.440Z,8.00
2018-03-18T17:19:23.827Z,7.78
2018-03-18T17:22:28.564Z,9.17
2018-03-18T17:25:31.857Z,8.10
2018-03-18T17:28:35.165Z,7.67
2018-03-18T17:31:39.783Z,7.63
2018-03-18T17:34:44.218Z,9.43
2018-03-18T17:37:48.044Z,6.90
2018-03-18T17:40:51.314Z,8.67
2018-03-18T17:43:54.682Z,6.63
2018-03-18T17:47:15.902Z,6.77
2018-03-18T17:54:14.045Z,8.40
2018-03-18T17:57:17.369Z,6.87
2018-03-18T18:00:21.438Z,8.03
2018-03-18T18:03:24.721Z,8.57
2018-03-18T18:06:28.003Z,6.95
2018-03-18T18:09:31.320Z,8.43
2018-03-18T18:12:35.395Z,8.00
2018-03-18T18:15:38.692Z,6.63
2018-03-18T18:18:42.789Z,6.80
2018-03-18T18:21:46.971Z,8.10
2018-03-18T18:24:50.636Z,6.70
2018-03-18T18:27:55.053Z,7.40
2018-03-18T18:30:58.665Z,7.47
2018-03-18T18:34:01.993Z,7.47
2018-03-18T18:37:05.307Z,7.30
2018-03-18T18:40:08.819Z,5.33
2018-03-18T18:43:12.985Z,7.50
2018-03-18T18:46:16.282Z,7.70
2018-03-18T18:49:19.685Z,9.13
2018-03-18T18:52:23.014Z,6.47
2018-03-18T18:55:26.302Z,7.17
2018-03-18T18:58:29.592Z,6.53
2018-03-18T19:01:32.937Z,8.43
2018-03-18T19:04:36.205Z,7.83
2018-03-18T19:07:39.683Z,6.23
2018-03-18T19:10:42.959Z,7.25
2018-03-18T19:13:47.092Z,7.73
2018-03-18T19:16:50.366Z,6.70
2018-03-18T19:20:12.144Z,8.50
2018-03-18T19:23:17.359Z,6.10
2018-03-18T19:26:21.075Z,7.10
2018-03-18T19:29:24.417Z,7.30
2018-03-18T19:32:27.729Z,6.63
2018-03-18T19:35:31.108Z,8.15
2018-03-18T19:38:34.389Z,6.60
2018-03-18T19:41:37.661Z,7.73
2018-03-18T19:44:41.254Z,6.18
2018-03-18T19:47:44.763Z,6.97
2018-03-18T19:50:48.045Z,6.72
2018-03-18T19:53:52.090Z,10.57
2018-03-18T19:56:55.774Z,6.47
2018-03-18T19:59:59.907Z,7.73
2018-03-18T20:03:03.213Z,6.23
2018-03-18T20:06:06.493Z,7.53
2018-03-18T20:09:09.764Z,6.33
2018-03-18T20:12:13.825Z,7.43
2018-03-18T20:15:17.117Z,6.83
2018-03-18T20:18:20.561Z,7.77
2018-03-18T20:21:23.905Z,7.33
2018-03-18T20:24:28.663Z,7.33
2018-03-18T20:27:31.988Z,5.90
2018-03-18T20:30:35.261Z,6.70
2018-03-18T20:33:38.555Z,7.50
2018-03-18T20:36:41.829Z,7.87
2018-03-18T20:40:05.533Z,7.20
2018-03-18T20:43:10.335Z,9.40
2018-03-18T20:46:14.485Z,9.40
2018-03-18T20:49:18.957Z,8.40
2018-03-18T20:52:23.885Z,8.73
2018-03-18T20:55:27.595Z,7.30
2018-03-18T20:58:31.520Z,8.47
2018-03-18T21:01:34.917Z,8.95
2018-03-18T21:04:38.224Z,8.03
2018-03-18T21:07:49.224Z,7.90
2018-03-18T21:11:10.000Z,5.93
2018-03-18T21:14:14.911Z,7.60
2018-03-18T21:17:19.242Z,8.43
2018-03-18T21:20:22.568Z,7.20
2018-03-18T21:23:26.749Z,8.17
2018-03-18T21:26:30.046Z,7.90
2018-03-18T21:29:33.393Z,7.50
2018-03-18T21:32:37.429Z,7.47
2018-03-18T21:35:40.721Z,7.97
2018-03-18T21:38:44.030Z,7.33
2018-03-18T21:41:47.315Z,7.77
2018-03-18T21:44:50.737Z,7.47
2018-03-18T21:47:54.120Z,8.20
2018-03-18T21:50:57.423Z,7.53
2018-03-18T21:54:00.718Z,6.90
2018-03-18T21:57:04.006Z,9.27
2018-03-18T22:00:25.550Z,7.83
2018-03-18T22:03:29.645Z,8.80
2018-03-18T22:06:32.981Z,8.90
2018-03-18T22:09:36.678Z,8.02
2018-03-18T22:12:39.959Z,7.80
2018-03-18T22:15:44.011Z,7.90
2018-03-18T22:18:47.367Z,9.30
2018-03-18T22:21:50.634Z,8.93
2018-03-18T22:24:53.902Z,8.47
2018-03-18T22:27:57.560Z,6.77
2018-03-18T22:31:00.870Z,9.13
2018-03-18T22:34:04.153Z,10.37
2018-03-18T22:37:07.429Z,9.53
2018-03-18T22:40:11.480Z,6.90
2018-03-18T22:43:14.801Z,8.83
2018-03-18T22:46:18.200Z,9.83
2018-03-18T22:49:21.570Z,7.70
2018-03-18T22:52:24.845Z,8.73
2018-03-18T22:55:28.895Z,8.97
2018-03-18T22:58:34.247Z,8.80
2018-03-18T23:01:37.633Z,9.67
2018-03-18T23:04:40.938Z,8.33
2018-03-18T23:07:44.237Z,9.40
2018-03-18T23:10:47.516Z,8.70
2018-03-18T23:13:50.822Z,9.10
2018-03-18T23:16:54.109Z,9.03
2018-03-18T23:19:57.400Z,8.18
2018-03-18T23:23:00.766Z,7.70
2018-03-18T23:26:04.017Z,9.90
2018-03-18T23:29:07.280Z,6.75
2018-03-18T23:32:11.333Z,7.87
2018-03-18T23:35:14.892Z,10.00
2018-03-18T23:38:19.056Z,9.48
2018-03-18T23:41:22.355Z,9.83
2018-03-18T23:44:25.630Z,9.73
2018-03-18T23:47:28.903Z,8.80
2018-03-18T23:50:34.366Z,8.43
2018-03-18T23:53:37.692Z,8.43
2018-03-18T23:56:40.969Z,11.13
2018-03-18T23:59:45.034Z,10.00
